Time;durP1;ratioP1;P1;durP2;ratioP2;P2;SDS_P1;SDS_P2;PMS_P1;PMS_P2;Temp;Humidity;BMP_temperature;BMP_pressure;BME280_temperature;BME280_humidity;BME280_pressure;Samples;Min_cycle;Max_cycle;Signal;HPM_P1;HPM_P2
2021/10/21 00:01:11;;;;;;;2.50;2.30;;;;;;;16.76;52.71;94536.13;6126807;23;20179;-87
2021/10/21 00:03:38;;;;;;;2.38;2.10;;;;;;;16.80;52.58;94542.41;6125671;23;20199;-87
2021/10/21 00:06:04;;;;;;;2.88;2.15;;;;;;;16.82;52.26;94540.38;6127442;23;20179;-87
2021/10/21 00:08:31;;;;;;;2.25;2.13;;;;;;;16.87;51.80;94535.25;6125076;23;20653;-87
2021/10/21 00:10:58;;;;;;;2.10;2.00;;;;;;;16.92;52.01;94518.91;6122829;23;20186;-85
2021/10/21 00:13:26;;;;;;;2.30;2.10;;;;;;;16.97;52.22;94508.56;6122324;23;20200;-87
2021/10/21 00:15:52;;;;;;;2.40;2.20;;;;;;;16.95;51.38;94502.81;6123276;23;20499;-86
2021/10/21 00:18:20;;;;;;;2.25;2.10;;;;;;;16.91;51.37;94506.94;6123591;23;20230;-83
2021/10/21 00:20:46;;;;;;;4.15;2.13;;;;;;;16.88;51.44;94491.81;6123191;23;20210;-86
2021/10/21 00:23:13;;;;;;;2.40;2.20;;;;;;;16.92;51.43;94504.09;6122940;23;20250;-86
2021/10/21 00:25:39;;;;;;;2.40;2.20;;;;;;;16.93;51.33;94502.28;6122427;23;20781;-85
2021/10/21 00:28:06;;;;;;;2.28;2.13;;;;;;;16.92;51.74;94496.31;6123227;23;20546;-86
2021/10/21 00:30:34;;;;;;;2.20;2.00;;;;;;;16.95;51.66;94500.22;6124220;23;20234;-87
2021/10/21 00:33:00;;;;;;;3.20;1.85;;;;;;;16.99;51.87;94495.31;6124761;23;20203;-85
2021/10/21 00:35:27;;;;;;;3.28;1.83;;;;;;;16.97;51.98;94479.16;6124566;23;20175;-84
2021/10/21 00:37:54;;;;;;;2.10;1.90;;;;;;;16.95;52.21;94476.03;6124742;23;20179;-85
2021/10/21 00:40:22;;;;;;;2.00;1.90;;;;;;;16.98;52.53;94478.94;6126587;23;20183;-87
2021/10/21 00:42:48;;;;;;;1.98;1.88;;;;;;;16.97;52.74;94463.56;6127646;23;20195;-87
2021/10/21 00:45:15;;;;;;;2.03;1.92;;;;;;;16.88;52.47;94461.41;6127055;23;20204;-87
2021/10/21 00:47:43;;;;;;;1.90;1.80;;;;;;;16.91;52.69;94458.34;6127230;23;20179;-86
2021/10/21 00:50:10;;;;;;;2.10;1.90;;;;;;;16.87;52.57;94443.47;6128430;23;20557;-86
2021/10/21 00:52:37;;;;;;;2.05;1.85;;;;;;;16.89;52.71;94450.00;6127567;23;20528;-85
2021/10/21 00:55:05;;;;;;;2.00;1.80;;;;;;;16.87;52.34;94444.25;6126962;23;20393;-87
2021/10/21 00:57:31;;;;;;;2.08;1.70;;;;;;;16.82;52.63;94444.19;6127604;23;20637;-87
2021/10/21 00:59:58;;;;;;;2.47;1.90;;;;;;;16.75;52.16;94429.78;6127793;23;20556;-87
2021/10/21 01:02:24;;;;;;;2.25;2.05;;;;;;;16.76;52.12;94416.53;6126869;23;20218;-88
2021/10/21 01:04:52;;;;;;;1.90;1.80;;;;;;;16.79;52.20;94423.06;6127108;23;20200;-87
2021/10/21 01:07:19;;;;;;;2.40;2.17;;;;;;;16.75;51.91;94420.16;6126470;23;20179;-88
2021/10/21 01:09:46;;;;;;;2.20;2.00;;;;;;;16.74;52.33;94421.19;6127165;23;20179;-87
2021/10/21 01:12:13;;;;;;;2.13;2.00;;;;;;;16.70;52.02;94395.97;6127690;23;20199;-87
2021/10/21 01:14:40;;;;;;;2.55;2.35;;;;;;;16.68;52.18;94401.41;6126765;23;20175;-87
2021/10/21 01:17:06;;;;;;;2.67;1.75;;;;;;;16.67;51.96;94391.25;6127361;23;20180;-88
2021/10/21 01:19:33;;;;;;;2.65;1.80;;;;;;;16.66;51.78;94393.06;6126543;23;20183;-87
2021/10/21 01:22:01;;;;;;;2.13;1.92;;;;;;;16.72;51.96;94381.69;6126944;23;20184;-88
2021/10/21 01:24:27;;;;;;;2.30;2.10;;;;;;;16.74;51.92;94371.06;6126186;23;20200;-87
2021/10/21 01:26:55;;;;;;;2.90;2.05;;;;;;;16.72;51.78;94360.91;6126658;23;20250;-87
2021/10/21 01:29:25;;;;;;;3.05;2.10;;;;;;;16.70;51.66;94355.16;6126596;23;20175;-87
2021/10/21 01:31:53;;;;;;;2.70;1.90;;;;;;;16.68;51.33;94362.41;6127501;23;20187;-88
2021/10/21 01:34:19;;;;;;;2.28;2.13;;;;;;;16.62;51.42;94355.56;6126881;23;20183;-87
2021/10/21 01:36:51;;;;;;;5.57;2.08;;;;;;;16.62;51.20;94350.34;6126965;23;20175;-87
2021/10/21 01:39:20;;;;;;;3.83;2.22;;;;;;;16.70;51.15;94330.97;6127141;23;20164;-87
2021/10/21 01:41:47;;;;;;;2.05;1.95;;;;;;;16.68;51.18;94331.22;6126521;23;20179;-87
2021/10/21 01:44:14;;;;;;;2.38;2.17;;;;;;;16.66;50.87;94335.88;6126448;23;20195;-87
2021/10/21 01:46:40;;;;;;;2.38;2.17;;;;;;;16.71;50.97;94330.75;6127163;23;20175;-87
2021/10/21 01:49:07;;;;;;;2.30;2.10;;;;;;;16.74;50.82;94329.47;6125836;23;20252;-86
2021/10/21 01:51:34;;;;;;;3.17;2.13;;;;;;;16.68;50.49;94320.03;6125874;23;20554;-88
2021/10/21 01:54:00;;;;;;;2.67;2.38;;;;;;;16.66;50.90;94329.91;6125537;23;20219;-86
2021/10/21 01:56:28;;;;;;;2.95;2.30;;;;;;;16.59;50.83;94310.03;6126120;23;20592;-88
2021/10/21 01:58:55;;;;;;;2.92;2.47;;;;;;;16.61;50.77;94325.41;6125718;23;20187;-86
2021/10/21 02:01:21;;;;;;;3.22;2.58;;;;;;;16.67;50.88;94314.06;6126395;23;20284;-88
2021/10/21 02:03:47;;;;;;;4.22;2.55;;;;;;;16.58;50.65;94311.06;6126062;23;20231;-86
2021/10/21 02:06:14;;;;;;;2.30;2.10;;;;;;;16.58;51.01;94297.28;6126524;23;20199;-87
2021/10/21 02:08:40;;;;;;;2.47;2.28;;;;;;;16.60;50.79;94284.84;6126462;23;20186;-87
2021/10/21 02:11:07;;;;;;;3.05;2.50;;;;;;;16.62;50.85;94282.78;6126575;23;20179;-87
2021/10/21 02:13:35;;;;;;;2.85;2.30;;;;;;;16.59;50.61;94278.84;6126609;23;20227;-87
2021/10/21 02:16:01;;;;;;;3.00;2.10;;;;;;;16.57;50.69;94270.53;6125184;23;20233;-84
2021/10/21 02:18:28;;;;;;;2.40;2.28;;;;;;;16.65;50.48;94281.53;6125544;23;20704;-86
2021/10/21 02:20:55;;;;;;;2.40;2.20;;;;;;;16.71;51.02;94272.78;6126479;23;20262;-87
2021/10/21 02:23:21;;;;;;;2.33;2.20;;;;;;;16.74;50.42;94278.25;6126414;23;20207;-87
2021/10/21 02:25:47;;;;;;;2.33;2.13;;;;;;;16.84;50.71;94286.16;6125704;23;20533;-88
2021/10/21 02:28:14;;;;;;;2.30;2.10;;;;;;;16.92;50.64;94283.09;6126204;23;20386;-87
2021/10/21 02:30:42;;;;;;;2.28;2.08;;;;;;;16.91;50.56;94286.75;6126465;23;20492;-88
2021/10/21 02:33:08;;;;;;;2.00;1.90;;;;;;;16.89;50.58;94293.22;6126752;23;20200;-87
2021/10/21 02:35:35;;;;;;;2.50;2.25;;;;;;;16.83;50.28;94281.19;6126539;23;20556;-87
2021/10/21 02:38:01;;;;;;;2.50;2.30;;;;;;;16.79;49.37;94283.50;6126078;23;20176;-88
2021/10/21 02:40:28;;;;;;;3.80;2.22;;;;;;;16.87;49.97;94305.66;6126214;23;20557;-87
2021/10/21 02:42:54;;;;;;;2.33;2.13;;;;;;;16.90;50.08;94350.16;6126919;23;20199;-87
2021/10/21 02:45:21;;;;;;;2.33;2.13;;;;;;;16.76;50.75;94382.75;6126254;23;20627;-87
2021/10/21 02:47:51;;;;;;;4.05;2.13;;;;;;;16.50;53.08;94388.69;6126778;23;20176;-87
2021/10/21 02:50:18;;;;;;;2.50;2.30;;;;;;;16.29;54.54;94311.53;6126601;23;20231;-88
2021/10/21 02:52:44;;;;;;;2.90;2.60;;;;;;;16.18;55.24;94293.22;6125608;23;20561;-86
2021/10/21 02:55:11;;;;;;;2.45;2.25;;;;;;;16.22;54.49;94312.50;6122228;23;20203;-86
2021/10/21 02:57:37;;;;;;;2.80;2.10;;;;;;;16.27;54.83;94337.75;6123284;23;20179;-86
2021/10/21 03:00:05;;;;;;;2.50;2.30;;;;;;;16.34;54.61;94317.59;6122801;23;20230;-88
2021/10/21 03:02:32;;;;;;;2.35;2.15;;;;;;;16.36;54.79;94332.91;6122763;23;20203;-86
2021/10/21 03:05:00;;;;;;;2.00;1.90;;;;;;;16.37;54.76;94313.69;6122644;23;20266;-85
2021/10/21 03:07:26;;;;;;;2.40;2.20;;;;;;;16.38;54.76;94297.09;6123124;23;20180;-86
2021/10/21 03:09:53;;;;;;;2.30;2.10;;;;;;;16.37;55.09;94304.09;6122496;23;20231;-86
2021/10/21 03:12:19;;;;;;;2.17;2.00;;;;;;;16.34;55.67;94312.38;6122831;23;20195;-85
2021/10/21 03:14:45;;;;;;;2.10;1.90;;;;;;;16.35;55.54;94339.94;6121763;23;20644;-86
2021/10/21 03:17:12;;;;;;;2.40;2.20;;;;;;;16.37;55.70;94363.06;6122934;23;20179;-85
2021/10/21 03:19:39;;;;;;;2.20;2.10;;;;;;;16.39;55.71;94377.38;6122503;23;20182;-86
2021/10/21 03:22:07;;;;;;;2.50;2.30;;;;;;;16.42;56.04;94387.28;6123181;23;20186;-85
2021/10/21 03:24:33;;;;;;;3.15;2.35;;;;;;;16.33;55.92;94388.75;6122551;23;20562;-87
2021/10/21 03:26:59;;;;;;;2.35;2.15;;;;;;;16.26;56.58;94395.91;6122754;23;20182;-83
2021/10/21 03:29:26;;;;;;;2.53;2.33;;;;;;;16.26;56.39;94413.31;6122719;23;20245;-85
2021/10/21 03:31:52;;;;;;;2.38;2.17;;;;;;;16.22;56.43;94426.78;6122754;23;20183;-84
2021/10/21 03:34:19;;;;;;;3.85;2.33;;;;;;;16.22;56.38;94418.97;6122242;23;20179;-84
2021/10/21 03:36:46;;;;;;;2.45;1.90;;;;;;;16.08;57.40;94419.56;6123055;23;20171;-83
2021/10/21 03:39:13;;;;;;;2.30;2.10;;;;;;;16.00;57.68;94432.94;6122894;23;20183;-85
2021/10/21 03:41:40;;;;;;;2.30;2.10;;;;;;;16.07;57.08;94423.19;6122850;23;20179;-83
2021/10/21 03:44:06;;;;;;;2.53;2.33;;;;;;;16.12;56.79;94420.66;6122093;23;20195;-84
2021/10/21 03:46:33;;;;;;;2.25;2.05;;;;;;;16.12;57.26;94405.88;6122848;23;20207;-83
2021/10/21 03:49:00;;;;;;;3.00;2.33;;;;;;;16.14;56.73;94406.44;6122654;23;20211;-84
2021/10/21 03:51:26;;;;;;;3.05;2.30;;;;;;;16.16;57.13;94398.41;6122962;23;20198;-84
2021/10/21 03:53:52;;;;;;;2.92;2.10;;;;;;;16.22;56.57;94408.59;6121543;23;20211;-84
2021/10/21 03:56:20;;;;;;;2.40;2.20;;;;;;;16.23;56.39;94424.97;6122522;23;20172;-84
2021/10/21 03:58:47;;;;;;;2.75;2.53;;;;;;;16.21;56.86;94433.00;6122495;23;20179;-84
2021/10/21 04:01:13;;;;;;;3.17;2.17;;;;;;;16.21;56.53;94448.56;6122394;23;20207;-83
2021/10/21 04:03:40;;;;;;;2.90;2.60;;;;;;;16.26;56.50;94466.03;6122308;23;20262;-82
2021/10/21 04:06:06;;;;;;;2.40;2.20;;;;;;;16.27;56.76;94466.84;6124663;23;20215;-84
2021/10/21 04:08:33;;;;;;;3.42;2.28;;;;;;;16.27;56.97;94472.03;6124742;23;20186;-84
2021/10/21 04:11:01;;;;;;;2.22;2.03;;;;;;;16.22;57.37;94483.91;6124792;23;20176;-85
2021/10/21 04:13:29;;;;;;;4.18;2.50;;;;;;;16.19;56.95;94496.59;6124623;23;20281;-85
2021/10/21 04:15:56;;;;;;;3.08;2.63;;;;;;;16.17;57.40;94486.44;6124239;23;20176;-85
2021/10/21 04:18:22;;;;;;;2.80;2.10;;;;;;;16.13;57.34;94508.72;6124844;23;20182;-85
2021/10/21 04:20:49;;;;;;;3.67;2.42;;;;;;;16.11;56.92;94528.94;6124520;23;20495;-85
2021/10/21 04:23:16;;;;;;;2.92;2.40;;;;;;;16.07;57.38;94553.81;6124483;23;20291;-85
2021/10/21 04:25:42;;;;;;;3.55;2.35;;;;;;;16.05;56.86;94555.84;6128331;23;20203;-82
2021/10/21 04:28:09;;;;;;;2.42;2.22;;;;;;;16.07;56.47;94566.78;6125332;23;20187;-83
2021/10/21 04:30:36;;;;;;;2.55;2.35;;;;;;;16.14;56.55;94566.66;6124582;23;20179;-84
2021/10/21 04:33:03;;;;;;;4.85;2.42;;;;;;;16.08;56.82;94570.97;6123807;23;20199;-82
2021/10/21 04:35:29;;;;;;;3.15;2.50;;;;;;;16.12;56.70;94563.50;6123988;23;20505;-82
2021/10/21 04:37:56;;;;;;;3.45;2.35;;;;;;;16.12;56.75;94543.50;6123822;23;20180;-83
2021/10/21 04:40:22;;;;;;;2.78;2.30;;;;;;;16.10;57.02;94527.38;6123663;23;20683;-84
2021/10/21 04:42:49;;;;;;;3.10;2.30;;;;;;;16.11;56.95;94499.59;6124379;23;20282;-85
2021/10/21 04:45:15;;;;;;;2.72;2.53;;;;;;;16.07;57.79;94509.66;6123532;23;20207;-85
2021/10/21 04:47:43;;;;;;;3.55;2.30;;;;;;;16.03;58.03;94492.19;6124278;23;20176;-86
2021/10/21 04:50:10;;;;;;;4.60;2.95;;;;;;;16.04;57.91;94481.56;6124234;23;20180;-86
2021/10/21 04:52:37;;;;;;;4.22;2.88;;;;;;;15.98;58.83;94542.22;6124739;23;20206;-88
2021/10/21 04:55:06;;;;;;;3.00;2.70;;;;;;;15.96;59.48;94541.69;6122716;23;20207;-86
2021/10/21 04:57:33;;;;;;;3.30;3.00;;;;;;;15.94;59.38;94509.19;6124408;23;20206;-86
2021/10/21 04:59:59;;;;;;;3.60;3.08;;;;;;;15.98;59.14;94503.28;6123768;23;20831;-84
2021/10/21 05:02:25;;;;;;;4.95;2.85;;;;;;;15.97;59.74;94464.59;6124122;23;20211;-83
2021/10/21 05:04:53;;;;;;;3.55;3.25;;;;;;;16.02;59.55;94493.22;6123501;23;20187;-83
2021/10/21 05:07:24;;;;;;;3.40;3.10;;;;;;;15.93;60.22;94521.38;6125340;23;20187;-85
2021/10/21 05:09:50;;;;;;;3.50;3.20;;;;;;;15.91;60.78;94530.44;6123814;23;20181;-84
2021/10/21 05:12:17;;;;;;;4.53;3.00;;;;;;;15.93;60.71;94518.78;6124369;23;20246;-84
2021/10/21 05:14:45;;;;;;;3.67;3.25;;;;;;;15.79;61.56;94486.34;6123508;23;20254;-86
2021/10/21 05:17:12;;;;;;;3.90;3.28;;;;;;;15.79;61.36;94513.09;6123832;23;20191;-85
2021/10/21 05:20:03;;;;;;;3.58;3.28;;;;;;;15.79;61.55;94478.56;6124103;23;20518;-84
2021/10/21 05:22:34;;;;;;;3.95;3.50;;;;;;;15.73;62.24;94469.94;6123442;23;20206;-84
2021/10/21 05:25:01;;;;;;;4.25;3.85;;;;;;;15.74;61.55;94458.53;6123574;23;20214;-84
2021/10/21 05:27:27;;;;;;;3.45;3.20;;;;;;;15.83;60.10;94425.19;6123668;23;20645;-83
2021/10/21 05:29:57;;;;;;;5.03;2.50;;;;;;;16.02;58.72;94447.25;6124021;23;20214;-85
2021/10/21 05:32:24;;;;;;;3.00;2.50;;;;;;;16.27;58.19;94448.66;6125720;23;20192;-86
2021/10/21 05:34:50;;;;;;;3.00;2.80;;;;;;;16.38;57.39;94445.94;6124154;23;20182;-86
2021/10/21 05:37:19;;;;;;;2.97;2.75;;;;;;;16.56;56.99;94471.63;6124340;23;20176;-84
2021/10/21 05:39:48;;;;;;;2.60;2.40;;;;;;;16.63;56.59;94468.09;6124036;23;20172;-84
2021/10/21 05:42:16;;;;;;;2.70;2.50;;;;;;;16.74;56.33;94488.03;6123948;23;20314;-84
2021/10/21 05:44:43;;;;;;;3.53;2.60;;;;;;;16.82;56.08;94488.38;6123192;23;20180;-85
2021/10/21 05:47:10;;;;;;;4.95;2.50;;;;;;;16.79;57.48;94483.66;6123311;23;20198;-85
2021/10/21 05:49:37;;;;;;;3.35;2.20;;;;;;;16.76;59.61;94481.53;6124231;23;20179;-85
2021/10/21 05:52:04;;;;;;;3.22;1.80;;;;;;;16.74;60.31;94496.56;6123931;23;20254;-85
2021/10/21 05:54:32;;;;;;;2.05;1.55;;;;;;;16.64;61.83;94517.25;6122239;23;20215;-85
2021/10/21 05:57:01;;;;;;;3.10;1.60;;;;;;;16.59;63.49;94515.34;6123439;23;20650;-84
2021/10/21 05:59:27;;;;;;;2.25;1.70;;;;;;;16.54;65.78;94501.50;6123609;23;20187;-85
2021/10/21 06:01:55;;;;;;;1.60;1.50;;;;;;;16.40;66.41;94542.63;6123382;23;20179;-85
2021/10/21 06:04:23;;;;;;;2.05;1.38;;;;;;;16.27;67.32;94555.94;6124297;23;20160;-85
2021/10/21 06:06:49;;;;;;;3.47;1.30;;;;;;;16.18;68.67;94571.09;6124228;23;20231;-84
2021/10/21 06:09:20;;;;;;;2.40;1.30;;;;;;;16.15;69.78;94569.00;6123724;23;20198;-83
2021/10/21 06:11:50;;;;;;;2.17;1.50;;;;;;;16.16;70.35;94593.94;6124101;23;20225;-86
2021/10/21 06:14:17;;;;;;;1.67;1.58;;;;;;;16.01;72.03;94587.69;6123595;23;20167;-87
2021/10/21 06:16:48;;;;;;;1.90;1.70;;;;;;;15.95;72.70;94633.56;6124472;23;20210;-87
2021/10/21 06:19:15;;;;;;;2.47;1.60;;;;;;;15.87;72.53;94657.31;6124239;23;20179;-87
2021/10/21 06:21:59;;;;;;;1.63;1.40;;;;;;;15.67;71.77;94634.34;6123607;23;20486;-86
2021/10/21 06:24:31;;;;;;;2.72;1.20;;;;;;;15.51;70.01;94653.22;6123407;23;20610;-87
2021/10/21 06:26:59;;;;;;;1.52;1.42;;;;;;;15.48;69.52;94644.06;6123814;23;20179;-87
2021/10/21 06:29:25;;;;;;;1.52;1.05;;;;;;;15.36;65.33;94647.72;6124786;23;20183;-85
2021/10/21 06:31:52;;;;;;;3.72;0.80;;;;;;;15.23;63.23;94642.75;6124682;23;20633;-84
2021/10/21 06:34:18;;;;;;;6.18;1.23;;;;;;;15.17;60.56;94654.84;6123863;23;20180;-86
2021/10/21 06:36:45;;;;;;;2.38;1.27;;;;;;;15.19;60.71;94647.66;6123550;23;20641;-86
2021/10/21 06:39:11;;;;;;;1.65;1.20;;;;;;;15.12;59.94;94671.09;6123971;23;20178;-85
2021/10/21 06:41:38;;;;;;;2.08;0.75;;;;;;;15.06;59.64;94668.59;6124355;23;20234;-84
2021/10/21 06:44:07;;;;;;;2.25;0.77;;;;;;;15.04;59.56;94674.00;6123650;23;20678;-84
2021/10/21 06:46:34;;;;;;;2.38;0.88;;;;;;;15.03;58.19;94682.00;6124004;23;20199;-86
2021/10/21 06:49:01;;;;;;;2.03;0.77;;;;;;;14.97;55.11;94685.53;6124366;23;20175;-85
2021/10/21 06:51:28;;;;;;;2.88;1.10;;;;;;;15.03;54.28;94679.41;6124091;23;20716;-86
2021/10/21 06:53:54;;;;;;;3.90;1.03;;;;;;;15.07;52.97;94690.91;6122990;23;20215;-84
2021/10/21 06:56:21;;;;;;;3.22;0.80;;;;;;;15.13;52.65;94710.78;6124100;23;20175;-86
2021/10/21 06:58:47;;;;;;;1.60;0.80;;;;;;;15.18;53.11;94716.06;6123690;23;20176;-84
2021/10/21 07:01:16;;;;;;;3.97;0.70;;;;;;;15.18;53.78;94697.94;6124095;23;20811;-86
2021/10/21 07:03:42;;;;;;;3.00;1.13;;;;;;;15.10;54.26;94699.03;6123426;23;20207;-85
2021/10/21 07:06:09;;;;;;;2.58;0.80;;;;;;;15.16;54.90;94713.72;6123761;23;20199;-87
2021/10/21 07:08:35;;;;;;;1.75;0.70;;;;;;;15.07;55.56;94735.00;6124077;23;20254;-85
2021/10/21 07:11:03;;;;;;;3.97;1.00;;;;;;;15.08;56.43;94708.06;6124315;23;20180;-85
2021/10/21 07:13:30;;;;;;;2.55;0.90;;;;;;;15.02;56.86;94734.88;6124021;23;20772;-84
2021/10/21 07:15:56;;;;;;;2.72;0.90;;;;;;;14.88;57.83;94710.97;6123548;23;20840;-86
2021/10/21 07:18:24;;;;;;;1.87;0.90;;;;;;;14.84;58.32;94728.78;6123950;23;20179;-86
2021/10/21 07:20:50;;;;;;;4.03;0.95;;;;;;;14.83;59.30;94742.75;6124215;23;20180;-86
2021/10/21 07:23:17;;;;;;;2.83;0.97;;;;;;;14.82;60.12;94748.16;6124129;23;20222;-85
2021/10/21 07:25:44;;;;;;;5.25;1.08;;;;;;;14.85;60.21;94753.69;6123748;23;20180;-86
2021/10/21 07:28:10;;;;;;;2.83;0.83;;;;;;;14.91;59.94;94769.34;6124229;23;20203;-87
2021/10/21 07:30:37;;;;;;;2.83;1.10;;;;;;;14.90;59.94;94771.16;6125023;23;20226;-86
2021/10/21 07:33:03;;;;;;;3.07;0.90;;;;;;;14.99;59.84;94790.56;6126233;23;20528;-86
2021/10/21 07:35:32;;;;;;;2.67;0.88;;;;;;;14.98;59.66;94770.84;6122686;23;20537;-87
2021/10/21 07:37:59;;;;;;;3.53;1.10;;;;;;;14.95;59.13;94789.44;6122625;23;20179;-86
2021/10/21 07:40:25;;;;;;;2.10;1.27;;;;;;;14.96;59.08;94791.00;6124454;23;20657;-85
2021/10/21 07:42:52;;;;;;;3.40;1.05;;;;;;;14.93;58.79;94780.28;6124593;23;20273;-87
2021/10/21 07:45:18;;;;;;;2.67;1.20;;;;;;;15.00;58.42;94805.13;6124267;23;20176;-86
2021/10/21 07:47:46;;;;;;;2.33;1.07;;;;;;;14.84;58.71;94814.28;6124323;23;20202;-87
2021/10/21 07:50:14;;;;;;;2.30;0.90;;;;;;;14.79;58.63;94827.16;6124601;23;20711;-87
2021/10/21 07:52:45;;;;;;;1.73;1.00;;;;;;;14.82;58.26;94826.69;6124998;23;20279;-88
2021/10/21 07:55:11;;;;;;;2.78;1.25;;;;;;;14.76;57.04;94853.50;6122986;23;20369;-86
2021/10/21 07:57:38;;;;;;;3.60;1.37;;;;;;;14.89;56.02;94839.56;6124842;23;20177;-84
2021/10/21 08:00:09;;;;;;;1.73;1.20;;;;;;;14.88;54.46;94826.81;6124537;23;20184;-86
2021/10/21 08:02:36;;;;;;;4.40;1.20;;;;;;;14.86;54.00;94838.19;6124421;23;20211;-85
2021/10/21 08:05:03;;;;;;;6.00;1.63;;;;;;;14.93;53.42;94824.34;6124360;23;20183;-85
2021/10/21 08:07:32;;;;;;;2.73;0.90;;;;;;;14.85;52.42;94838.41;6124004;23;20737;-84
2021/10/21 08:09:59;;;;;;;2.83;1.00;;;;;;;14.84;51.50;94852.38;6124384;23;20230;-84
2021/10/21 08:12:26;;;;;;;4.37;1.30;;;;;;;14.94;51.93;94852.66;6124440;23;20208;-84
2021/10/21 08:14:53;;;;;;;3.60;1.13;;;;;;;14.91;51.89;94860.88;6124185;23;20186;-84
2021/10/21 08:17:19;;;;;;;5.17;1.40;;;;;;;14.91;51.72;94860.88;6124488;23;20359;-84
2021/10/21 08:19:45;;;;;;;8.23;1.33;;;;;;;15.02;51.64;94867.09;6125031;23;20183;-85
2021/10/21 08:22:12;;;;;;;4.50;1.33;;;;;;;15.08;51.60;94869.59;6124582;23;20553;-84
2021/10/21 08:24:38;;;;;;;4.37;1.37;;;;;;;14.89;50.98;94862.09;6124820;23;20182;-86
2021/10/21 08:27:06;;;;;;;6.57;1.70;;;;;;;14.96;51.32;94892.09;6124693;23;20195;-84
2021/10/21 08:29:32;;;;;;;3.88;1.42;;;;;;;14.90;50.91;94892.19;6124895;23;20184;-86
2021/10/21 08:32:03;;;;;;;5.30;1.55;;;;;;;14.94;51.18;94886.34;6124541;23;20243;-87
2021/10/21 08:34:30;;;;;;;5.67;1.50;;;;;;;15.10;51.72;94869.38;6124467;23;20171;-86
2021/10/21 08:36:57;;;;;;;3.97;1.58;;;;;;;15.05;50.79;94882.19;6123836;23;20625;-86
2021/10/21 08:39:23;;;;;;;2.70;1.40;;;;;;;15.08;51.22;94892.94;6124539;23;20266;-87
2021/10/21 08:41:50;;;;;;;6.47;1.40;;;;;;;15.15;51.20;94898.81;6123908;23;20175;-87
2021/10/21 08:44:18;;;;;;;4.27;1.40;;;;;;;15.29;51.03;94885.66;6123783;23;20396;-86
2021/10/21 08:46:46;;;;;;;8.50;1.67;;;;;;;15.36;50.51;94899.31;6124184;23;20203;-85
2021/10/21 08:49:13;;;;;;;7.67;1.40;;;;;;;15.82;49.50;94889.00;6123727;23;20182;-86
2021/10/21 08:51:40;;;;;;;3.08;1.27;;;;;;;16.31;48.79;94892.16;6124088;23;20184;-84
2021/10/21 08:54:06;;;;;;;4.15;1.10;;;;;;;16.49;47.56;94893.78;6122748;23;20219;-85
2021/10/21 08:56:34;;;;;;;5.10;1.52;;;;;;;16.31;48.36;94904.34;6124522;23;20184;-86
2021/10/21 08:59:01;;;;;;;5.40;1.10;;;;;;;16.26;47.68;94901.63;6127517;23;20238;-84
2021/10/21 09:01:39;;;;;;;7.05;1.35;;;;;;;16.10;47.95;94914.28;6129421;23;20180;-87
2021/10/21 09:09:48;;;;;;;5.80;1.10;;;;;;;16.36;46.65;94933.00;6125877;23;20215;-83
2021/10/21 09:12:18;;;;;;;3.85;1.05;;;;;;;16.34;46.71;94950.66;6125948;23;20251;-83
2021/10/21 09:14:46;;;;;;;10.18;2.50;;;;;;;16.40;46.43;94928.94;6125613;23;20182;-85
2021/10/21 09:17:16;;;;;;;6.20;1.73;;;;;;;16.14;44.82;94922.44;6125358;23;20175;-84
2021/10/21 09:19:43;;;;;;;6.65;1.20;;;;;;;16.26;45.21;94918.00;6126469;23;20171;-86
2021/10/21 09:22:22;;;;;;;6.63;1.10;;;;;;;16.29;44.95;94971.31;6124832;23;20262;-84
2021/10/21 09:24:49;;;;;;;4.15;1.30;;;;;;;16.11;45.17;94938.47;6124911;23;20179;-86
2021/10/21 09:27:17;;;;;;;4.07;1.42;;;;;;;16.03;45.63;94969.94;6125200;23;20199;-84
2021/10/21 09:29:46;;;;;;;3.22;1.10;;;;;;;15.92;45.61;94950.75;6125449;23;20186;-88
2021/10/21 09:32:15;;;;;;;1.55;1.05;;;;;;;15.72;45.27;94984.03;6124781;23;20180;-85
2021/10/21 09:34:47;;;;;;;8.25;1.52;;;;;;;15.56;45.07;94974.28;6124677;23;20194;-87
2021/10/21 09:37:14;;;;;;;3.83;1.38;;;;;;;15.56;45.92;94975.09;6124638;23;20164;-86
2021/10/21 09:39:47;;;;;;;4.63;1.40;;;;;;;15.69;44.50;94964.50;6125250;23;20175;-86
2021/10/21 09:42:14;;;;;;;5.30;1.40;;;;;;;16.08;44.17;94970.88;6124927;23;20195;-85
2021/10/21 09:44:41;;;;;;;4.28;1.48;;;;;;;16.41;44.17;94970.28;6125369;23;20202;-87
2021/10/21 09:47:17;;;;;;;5.88;1.40;;;;;;;16.73;43.49;94982.94;6125241;23;20199;-87
2021/10/21 09:49:45;;;;;;;4.63;1.45;;;;;;;16.67;42.93;94960.47;6124716;23;20197;-86
2021/10/21 09:52:16;;;;;;;3.97;1.27;;;;;;;16.80;42.99;94960.97;6124965;23;20171;-86
2021/10/21 09:54:43;;;;;;;2.40;1.10;;;;;;;16.90;42.89;94960.41;6124059;23;20211;-85
2021/10/21 09:57:13;;;;;;;3.25;1.25;;;;;;;16.98;42.76;94948.81;6125674;23;20238;-87
2021/10/21 09:59:40;;;;;;;7.60;1.45;;;;;;;17.01;42.74;94962.16;6125021;23;20513;-86
2021/10/21 10:02:10;;;;;;;5.47;1.33;;;;;;;17.01;42.81;94995.19;6123676;23;20183;-86
2021/10/21 10:04:39;;;;;;;2.65;1.02;;;;;;;16.88;42.69;94973.63;6124363;23;20160;-86
2021/10/21 10:07:05;;;;;;;3.88;1.40;;;;;;;17.08;42.74;94967.25;6123707;23;20222;-86
2021/10/21 10:09:34;;;;;;;3.60;1.25;;;;;;;17.13;42.58;94981.13;6123638;23;20179;-84
2021/10/21 10:12:04;;;;;;;2.85;1.27;;;;;;;17.15;42.16;94975.69;6123650;23;20175;-84
2021/10/21 10:14:31;;;;;;;6.97;1.30;;;;;;;17.01;41.34;94995.97;6123276;23;20262;-84
2021/10/21 10:16:59;;;;;;;3.90;1.50;;;;;;;16.98;41.52;95039.84;6123960;23;20183;-86
2021/10/21 10:19:26;;;;;;;5.75;1.17;;;;;;;16.93;42.04;95001.56;6123655;23;20218;-83
2021/10/21 10:21:56;;;;;;;3.83;1.40;;;;;;;16.98;41.62;95006.03;6123792;23;20198;-85
2021/10/21 10:24:29;;;;;;;2.75;1.30;;;;;;;16.93;41.73;95010.13;6123650;23;20638;-84
2021/10/21 10:27:00;;;;;;;4.28;1.38;;;;;;;16.89;41.72;95024.63;6124339;23;20187;-85
2021/10/21 10:29:45;;;;;;;6.82;1.20;;;;;;;16.88;42.11;95020.44;6123980;23;20155;-87
2021/10/21 10:32:32;;;;;;;6.32;1.30;;;;;;;16.76;42.12;95032.66;6124377;23;20176;-83
2021/10/21 10:35:08;;;;;;;3.08;1.33;;;;;;;16.69;42.74;95026.78;6123021;23;20553;-86
2021/10/21 10:37:40;;;;;;;3.75;1.40;;;;;;;16.75;42.79;95023.25;6123892;23;20160;-86
2021/10/21 10:40:08;;;;;;;5.82;1.13;;;;;;;16.87;42.47;95029.25;6124454;23;20183;-85
2021/10/21 10:42:58;;;;;;;4.65;1.10;;;;;;;16.91;41.94;95051.19;6123341;23;20199;-87
2021/10/21 10:45:41;;;;;;;2.65;1.10;;;;;;;17.03;42.10;95063.38;6123253;23;20195;-84
2021/10/21 10:48:08;;;;;;;3.97;1.00;;;;;;;17.01;41.87;95058.41;6124292;23;20578;-86
2021/10/21 10:50:54;;;;;;;6.65;1.58;;;;;;;17.13;42.05;95055.75;6123595;23;20198;-86
2021/10/21 10:53:57;;;;;;;4.70;1.20;;;;;;;17.22;41.81;95060.38;6122389;23;20703;-83
2021/10/21 10:56:53;;;;;;;4.75;1.33;;;;;;;17.34;41.64;95088.97;6107874;23;20230;-86
2021/10/21 10:59:22;;;;;;;3.35;1.17;;;;;;;17.20;41.42;95070.22;6123684;23;20160;-85
2021/10/21 11:01:52;;;;;;;3.45;1.20;;;;;;;17.26;41.92;95068.53;6123159;23;20176;-86
2021/10/21 11:04:57;;;;;;;1.85;1.00;;;;;;;17.14;40.92;95094.56;6123679;23;20535;-83
2021/10/21 11:07:26;;;;;;;3.83;1.20;;;;;;;17.15;40.77;95083.13;6123038;23;20252;-85
2021/10/21 11:09:55;;;;;;;3.13;1.10;;;;;;;17.21;40.11;95099.66;6123489;23;20178;-86
2021/10/21 11:12:23;;;;;;;6.63;1.20;;;;;;;17.10;40.18;95084.84;6125560;23;20199;-86
2021/10/21 11:14:54;;;;;;;4.13;1.20;;;;;;;17.10;39.88;95080.44;6123888;23;20176;-86
2021/10/21 11:17:41;;;;;;;4.47;1.13;;;;;;;17.18;39.37;95089.69;6123635;23;20188;-84
2021/10/21 11:20:28;;;;;;;6.38;1.27;;;;;;;17.24;39.45;95089.56;6123417;23;20223;-86
2021/10/21 11:22:58;;;;;;;1.30;0.90;;;;;;;17.31;39.37;95083.47;6123080;23;20201;-84
2021/10/21 11:25:27;;;;;;;2.35;0.90;;;;;;;17.35;39.11;95095.75;6123324;23;20180;-85
2021/10/21 11:27:55;;;;;;;8.98;1.33;;;;;;;17.35;38.53;95087.94;6123905;23;20199;-84
2021/10/21 11:30:23;;;;;;;4.60;1.00;;;;;;;17.52;38.66;95095.81;6123085;23;20180;-84
2021/10/21 11:32:51;;;;;;;1.38;0.98;;;;;;;17.65;38.63;95090.38;6123444;23;20218;-85
2021/10/21 11:35:20;;;;;;;2.13;1.20;;;;;;;17.69;39.08;95103.75;6123871;23;20541;-85
2021/10/21 11:37:49;;;;;;;2.58;1.20;;;;;;;17.49;38.71;95093.72;6123822;23;20181;-85
2021/10/21 11:40:24;;;;;;;1.70;0.93;;;;;;;17.37;39.39;95101.53;6123812;23;20513;-84
2021/10/21 11:42:53;;;;;;;2.22;1.10;;;;;;;17.39;40.35;95106.50;6124073;23;20199;-85
2021/10/21 11:45:20;;;;;;;2.72;1.00;;;;;;;17.48;39.31;95085.09;6122970;23;20775;-85